Time;durP1;ratioP1;P1;durP2;ratioP2;P2;SDS_P1;SDS_P2;PMS_P1;PMS_P2;Temp;Humidity;BMP_temperature;BMP_pressure;BME280_temperature;BME280_humidity;BME280_pressure;Samples;Min_cycle;Max_cycle;Signal;HPM_P1;HPM_P2
2022/10/16 00:01:36;;;;;;;4.85;2.97;;;14.50;99.90;;;13.40;100.00;100546.78;5028235;28;20722;-79
2022/10/16 00:04:02;;;;;;;7.75;3.40;;;14.40;99.90;;;13.36;100.00;100547.06;5030470;28;20462;-79
2022/10/16 00:06:34;;;;;;;6.05;3.38;;;14.40;99.90;;;13.33;100.00;100540.16;5026011;28;20036;-79
2022/10/16 00:08:59;;;;;;;8.32;3.47;;;14.40;99.90;;;13.28;100.00;100552.78;5010880;28;20028;-79
2022/10/16 00:11:33;;;;;;;6.72;3.10;;;14.30;99.90;;;13.23;100.00;100542.47;5012275;28;20052;-78
2022/10/16 00:14:01;;;;;;;4.97;3.20;;;14.30;99.90;;;13.21;100.00;100548.81;5046931;28;20021;-79
2022/10/16 00:16:28;;;;;;;6.95;3.50;;;14.30;99.90;;;13.16;100.00;100545.59;5027068;28;20032;-79
2022/10/16 00:18:55;;;;;;;3.22;1.80;;;14.20;99.90;;;13.12;100.00;100544.91;5044964;28;20107;-78
2022/10/16 00:21:29;;;;;;;4.70;3.00;;;14.20;99.90;;;13.08;100.00;100554.81;5025940;28;20025;-79
2022/10/16 00:24:04;;;;;;;5.07;3.25;;;14.20;99.90;;;13.04;100.00;100565.66;5029597;28;20060;-79
2022/10/16 00:26:34;;;;;;;6.00;3.55;;;14.10;99.90;;;13.00;100.00;100566.78;5030615;28;20029;-79
2022/10/16 00:29:00;;;;;;;4.53;3.05;;;14.10;99.90;;;12.96;100.00;100570.56;5027463;28;20458;-80
2022/10/16 00:31:27;;;;;;;7.07;3.33;;;14.00;99.90;;;12.90;100.00;100579.72;5029122;28;20450;-79
2022/10/16 00:33:53;;;;;;;12.63;3.60;;;14.00;99.90;;;12.87;100.00;100575.47;5029957;28;20120;-79
2022/10/16 00:36:21;;;;;;;6.50;3.22;;;13.90;99.90;;;12.88;100.00;100582.44;5029771;28;20055;-79
2022/10/16 00:38:55;;;;;;;3.42;1.92;;;14.00;99.90;;;12.91;100.00;100582.28;5025198;28;20022;-79
2022/10/16 00:41:23;;;;;;;2.70;2.35;;;14.00;99.90;;;12.97;100.00;100596.06;5024330;28;20021;-79
2022/10/16 00:43:55;;;;;;;3.95;2.72;;;14.10;99.90;;;13.08;100.00;100598.91;5027205;28;20033;-79
2022/10/16 00:46:26;;;;;;;17.17;3.30;;;14.10;99.90;;;13.17;100.00;100598.34;5046058;28;20040;-79
2022/10/16 00:49:03;;;;;;;4.60;2.92;;;14.20;99.90;;;13.26;100.00;100594.31;5044426;28;20029;-78
2022/10/16 00:51:54;;;;;;;6.00;2.90;;;14.30;99.90;;;13.35;100.00;100596.47;5025058;28;20075;-78
2022/10/16 00:54:28;;;;;;;4.75;3.03;;;14.40;99.90;;;13.42;100.00;100594.28;5018249;28;20470;-78
2022/10/16 00:56:59;;;;;;;3.70;2.70;;;14.40;99.90;;;13.47;100.00;100600.16;5021005;28;20056;-78
2022/10/16 00:59:36;;;;;;;4.47;2.70;;;14.50;99.90;;;13.50;100.00;100598.19;5019804;28;20556;-78
2022/10/16 01:02:04;;;;;;;4.25;3.10;;;14.60;99.90;;;13.56;100.00;100594.28;5020040;28;20052;-78
2022/10/16 01:04:52;;;;;;;3.78;2.70;;;14.60;99.90;;;13.61;100.00;100597.53;5017302;28;20029;-79
2022/10/16 01:07:29;;;;;;;7.28;2.92;;;14.60;99.90;;;13.67;100.00;100602.44;5024169;28;20033;-78
2022/10/16 01:10:17;;;;;;;4.35;2.50;;;14.70;99.90;;;13.74;100.00;100602.91;5022402;28;20049;-78
2022/10/16 01:13:05;;;;;;;4.05;2.65;;;14.80;99.90;;;13.80;100.00;100609.59;5004412;28;20119;-78
2022/10/16 01:15:58;;;;;;;4.63;2.47;;;14.80;99.90;;;13.85;100.00;100610.19;5022013;28;20048;-77
2022/10/16 01:18:56;;;;;;;5.32;2.35;;;14.90;99.90;;;13.92;100.00;100614.13;5038531;28;20033;-78
2022/10/16 01:21:41;;;;;;;4.70;2.47;;;14.90;99.90;;;13.95;100.00;100612.16;5022078;28;20056;-78
2022/10/16 01:24:44;;;;;;;3.28;2.13;;;15.00;99.90;;;14.02;100.00;100606.50;5019584;28;20053;-78
2022/10/16 01:27:41;;;;;;;5.00;2.45;;;15.10;99.90;;;14.05;100.00;100609.78;5037285;28;20036;-78
2022/10/16 01:30:17;;;;;;;4.47;2.45;;;15.10;99.90;;;14.04;100.00;100610.72;5000942;28;20048;-78
2022/10/16 01:32:59;;;;;;;8.90;2.70;;;15.10;99.90;;;14.04;100.00;100609.84;5019462;28;20049;-78
2022/10/16 01:35:47;;;;;;;2.92;2.35;;;15.10;99.90;;;14.00;100.00;100611.88;5022484;28;20143;-78
2022/10/16 01:38:41;;;;;;;4.38;2.70;;;15.10;99.90;;;13.99;100.00;100620.75;5020573;28;20117;-78
2022/10/16 01:41:52;;;;;;;6.03;2.80;;;15.10;99.90;;;14.01;100.00;100626.78;5016741;28;20030;-78
2022/10/16 01:44:46;;;;;;;2.70;2.30;;;15.10;99.90;;;14.04;100.00;100636.34;5039659;28;20030;-78
2022/10/16 01:47:15;;;;;;;3.60;2.75;;;15.10;99.90;;;14.04;100.00;100634.56;5016391;28;21318;-78
2022/10/16 01:49:43;;;;;;;4.57;2.92;;;15.10;99.90;;;14.08;100.00;100625.47;5018337;28;20405;-78
2022/10/16 01:52:17;;;;;;;7.22;3.00;;;15.10;99.90;;;14.10;100.00;100634.19;5021090;28;20063;-78
2022/10/16 01:54:47;;;;;;;3.47;3.13;;;15.10;99.90;;;14.09;100.00;100645.69;5023872;28;20044;-78
2022/10/16 01:57:15;;;;;;;12.52;3.25;;;15.20;99.90;;;14.10;100.00;100654.50;5006642;28;20045;-78
2022/10/16 01:59:52;;;;;;;6.75;3.10;;;15.10;99.90;;;14.08;100.00;100645.78;5024409;28;20028;-78
2022/10/16 02:02:20;;;;;;;4.07;3.20;;;15.10;99.90;;;14.07;100.00;100647.59;5024025;28;20072;-78
2022/10/16 02:04:57;;;;;;;9.15;3.50;;;15.10;99.90;;;14.06;100.00;100637.97;5006203;28;20029;-78
2022/10/16 02:07:23;;;;;;;5.95;3.30;;;15.10;99.90;;;14.06;100.00;100645.03;5024597;28;20033;-78
2022/10/16 02:09:50;;;;;;;3.25;2.83;;;15.10;99.90;;;14.02;100.00;100639.09;5022526;28;20379;-78
2022/10/16 02:12:41;;;;;;;3.58;3.00;;;15.00;99.90;;;14.00;100.00;100640.16;5021692;28;20021;-77
2022/10/16 02:15:08;;;;;;;4.25;3.53;;;15.10;99.90;;;13.94;100.00;100647.50;5009746;28;20041;-78
2022/10/16 02:17:34;;;;;;;3.88;3.20;;;15.00;99.90;;;13.91;100.00;100653.00;5025755;28;20045;-78
2022/10/16 02:20:00;;;;;;;3.72;2.95;;;15.00;99.90;;;13.89;100.00;100660.19;5039889;28;20037;-78
2022/10/16 02:22:50;;;;;;;3.22;2.92;;;15.00;99.90;;;13.84;100.00;100679.91;5007820;28;20086;-78
2022/10/16 02:25:34;;;;;;;3.60;3.28;;;14.90;99.90;;;13.80;100.00;100674.00;5022521;28;20037;-79
2022/10/16 02:28:17;;;;;;;12.40;3.50;;;14.90;99.90;;;13.79;100.00;100666.97;5024795;28;20032;-79
2022/10/16 02:31:06;;;;;;;6.57;3.30;;;14.90;99.90;;;13.75;100.00;100666.31;5009821;28;20724;-78
2022/10/16 02:33:33;;;;;;;6.15;3.60;;;14.80;99.90;;;13.75;100.00;100673.41;5024524;28;20079;-78
2022/10/16 02:35:59;;;;;;;4.68;3.88;;;14.80;99.90;;;13.73;100.00;100670.84;5024029;28;20029;-79
2022/10/16 02:38:26;;;;;;;6.50;3.47;;;14.80;99.90;;;13.73;100.00;100670.84;5023061;28;20481;-78
2022/10/16 02:40:55;;;;;;;5.68;3.80;;;14.80;99.90;;;13.72;100.00;100668.31;5007253;28;20114;-77
2022/10/16 02:43:21;;;;;;;7.00;3.55;;;14.80;99.90;;;13.69;100.00;100679.94;5020839;28;20490;-78
2022/10/16 02:45:47;;;;;;;7.00;3.88;;;14.70;99.90;;;13.68;100.00;100667.63;5022440;28;20056;-79
2022/10/16 02:48:12;;;;;;;7.25;4.50;;;14.70;99.90;;;13.64;100.00;100663.47;5005967;28;20490;-78
2022/10/16 02:50:38;;;;;;;10.35;4.45;;;14.70;99.90;;;13.58;100.00;100668.28;5024281;28;20108;-78
2022/10/16 02:53:04;;;;;;;8.77;4.20;;;14.70;99.90;;;13.52;100.00;100672.16;5039947;28;20045;-78
2022/10/16 02:55:30;;;;;;;5.93;4.38;;;14.60;99.90;;;13.42;100.00;100676.28;5006465;28;20413;-77
2022/10/16 02:57:56;;;;;;;5.55;4.65;;;14.50;99.90;;;13.33;100.00;100667.94;5022485;28;20025;-78
2022/10/16 03:00:29;;;;;;;5.28;4.75;;;14.50;99.90;;;13.27;100.00;100684.13;5023472;28;20081;-78
2022/10/16 03:02:55;;;;;;;7.85;5.35;;;14.40;99.90;;;13.19;100.00;100677.59;5025429;28;20394;-78
2022/10/16 03:05:21;;;;;;;7.30;5.28;;;14.30;99.90;;;13.13;100.00;100676.16;5020914;28;20033;-79
2022/10/16 03:07:46;;;;;;;6.38;5.03;;;14.20;99.90;;;13.06;100.00;100669.53;5024006;28;20029;-78
2022/10/16 03:10:12;;;;;;;6.93;4.78;;;14.20;99.90;;;13.01;100.00;100676.88;5008302;28;20124;-78
2022/10/16 03:12:43;;;;;;;7.20;5.47;;;14.10;99.90;;;12.96;100.00;100673.63;5022182;28;20029;-78
2022/10/16 03:15:09;;;;;;;13.50;6.03;;;14.10;99.90;;;12.92;100.00;100678.25;5022804;28;20033;-79
2022/10/16 03:17:35;;;;;;;7.85;6.15;;;14.10;99.90;;;12.89;100.00;100683.69;5019828;28;20030;-79
2022/10/16 03:20:03;;;;;;;7.90;6.22;;;14.10;99.90;;;12.92;100.00;100688.81;5024329;28;20049;-78
2022/10/16 03:22:31;;;;;;;7.15;6.18;;;14.00;99.90;;;12.95;100.00;100693.06;5022463;28;20022;-78
2022/10/16 03:25:00;;;;;;;9.70;6.03;;;14.10;99.90;;;12.95;100.00;100688.63;5004590;28;20037;-78
2022/10/16 03:27:26;;;;;;;7.90;5.95;;;14.10;99.90;;;12.97;100.00;100697.34;5021580;28;20104;-78
2022/10/16 03:29:51;;;;;;;8.43;6.38;;;14.10;99.90;;;12.99;100.00;100697.25;5021003;28;20067;-79
2022/10/16 03:32:18;;;;;;;9.15;6.30;;;14.10;99.90;;;12.99;100.00;100692.81;5021219;28;20033;-78
2022/10/16 03:34:44;;;;;;;9.23;6.28;;;14.10;99.90;;;13.00;100.00;100705.09;5021095;28;20025;-78
2022/10/16 03:37:14;;;;;;;8.13;6.15;;;14.10;99.90;;;13.01;100.00;100714.72;5038547;28;20090;-78
2022/10/16 03:39:40;;;;;;;12.05;6.68;;;14.10;99.90;;;13.02;100.00;100710.28;5004750;28;20056;-78
2022/10/16 03:42:06;;;;;;;10.38;6.90;;;14.10;99.90;;;13.02;100.00;100715.56;5020918;28;20446;-78
2022/10/16 03:44:32;;;;;;;8.45;6.90;;;14.10;99.90;;;13.01;100.00;100713.88;5020520;28;20116;-78
2022/10/16 03:46:58;;;;;;;14.02;7.30;;;14.10;99.90;;;12.99;100.00;100716.59;5018973;28;20037;-78
2022/10/16 03:49:23;;;;;;;10.48;7.72;;;14.10;99.90;;;12.97;100.00;100712.34;5012574;23;20041;-78
2022/10/16 03:51:54;;;;;;;12.80;7.78;;;14.10;99.90;;;12.97;100.00;100717.63;5020996;28;20163;-78
2022/10/16 03:54:22;;;;;;;10.45;8.05;;;14.10;99.90;;;12.94;100.00;100723.94;5021546;28;20033;-78
2022/10/16 03:56:48;;;;;;;11.48;7.90;;;14.00;99.90;;;12.93;100.00;100714.31;5019911;28;20052;-78
2022/10/16 03:59:14;;;;;;;10.23;7.57;;;14.00;99.90;;;12.91;100.00;100719.69;5004750;28;20025;-78
2022/10/16 04:01:40;;;;;;;13.05;7.90;;;14.00;99.90;;;12.90;100.00;100723.25;5007290;28;20036;-79
2022/10/16 04:04:11;;;;;;;10.70;7.38;;;14.00;99.90;;;12.89;100.00;100732.13;5007231;28;20956;-78
2022/10/16 04:06:37;;;;;;;12.52;7.88;;;14.00;99.90;;;12.90;100.00;100730.34;5022948;28;20387;-78
2022/10/16 04:09:02;;;;;;;11.63;8.25;;;14.00;99.90;;;12.88;100.00;100730.41;5007870;28;20124;-79
2022/10/16 04:11:28;;;;;;;9.02;7.60;;;14.00;99.90;;;12.87;100.00;100727.84;5003596;28;20076;-78
2022/10/16 04:13:54;;;;;;;12.25;7.82;;;14.00;99.90;;;12.85;100.00;100724.44;5006617;28;20025;-78
2022/10/16 04:16:20;;;;;;;10.70;7.20;;;13.90;99.90;;;12.82;100.00;100725.47;5025248;28;20033;-78
2022/10/16 04:18:46;;;;;;;10.65;7.40;;;13.90;99.90;;;12.81;100.00;100730.88;5024492;28;20057;-78
2022/10/16 04:21:14;;;;;;;15.90;6.65;;;13.90;99.90;;;12.79;100.00;100735.38;5005588;28;20026;-79
2022/10/16 04:23:40;;;;;;;8.48;7.10;;;13.90;99.90;;;12.78;100.00;100729.22;5021352;28;20029;-79
2022/10/16 04:26:06;;;;;;;8.63;6.75;;;13.90;99.90;;;12.76;100.00;100736.38;5005302;28;20237;-78
2022/10/16 04:28:31;;;;;;;7.57;6.53;;;13.90;99.90;;;12.75;100.00;100742.63;5002986;28;20041;-79
2022/10/16 04:30:57;;;;;;;8.48;6.50;;;13.90;99.90;;;12.70;100.00;100749.94;5022988;28;20080;-78
2022/10/16 04:33:23;;;;;;;8.32;7.00;;;13.80;99.90;;;12.66;100.00;100740.50;5021680;28;20044;-78
2022/10/16 04:35:56;;;;;;;8.80;6.50;;;13.80;99.90;;;12.66;100.00;100751.06;5024587;28;20105;-78
2022/10/16 04:38:21;;;;;;;9.63;7.35;;;13.70;99.90;;;12.62;100.00;100749.50;5000590;28;20033;-78
2022/10/16 04:40:47;;;;;;;10.95;7.55;;;13.70;99.90;;;12.56;100.00;100749.84;5039684;28;20024;-79
2022/10/16 04:43:13;;;;;;;14.13;7.53;;;13.60;99.90;;;12.51;100.00;100758.03;5003364;28;20025;-78
2022/10/16 04:45:56;;;;;;;14.13;7.57;;;13.60;99.90;;;12.44;100.00;100756.63;5022438;28;20508;-78
2022/10/16 04:48:30;;;;;;;14.65;6.85;;;13.50;99.90;;;12.37;100.00;100749.97;5026749;28;20069;-78
2022/10/16 04:50:56;;;;;;;11.43;6.72;;;13.50;99.90;;;12.34;100.00;100744.88;5022369;28;20094;-79
2022/10/16 04:53:22;;;;;;;17.27;7.25;;;13.40;99.90;;;12.28;100.00;100748.69;5021956;28;20113;-78
2022/10/16 04:55:48;;;;;;;10.55;7.15;;;13.30;99.90;;;12.23;100.00;100746.28;5019562;28;20033;-78
2022/10/16 04:58:19;;;;;;;8.32;7.03;;;13.30;99.90;;;12.18;100.00;100752.75;5022517;28;20112;-78
2022/10/16 05:00:46;;;;;;;11.00;7.78;;;13.30;99.90;;;12.13;100.00;100749.50;5006324;28;20049;-78
2022/10/16 05:03:13;;;;;;;11.60;7.90;;;13.20;99.90;;;12.08;100.00;100755.03;5038530;28;20021;-78
2022/10/16 05:05:46;;;;;;;13.20;8.68;;;13.20;99.90;;;12.05;100.00;100752.53;5023401;28;20025;-78
2022/10/16 05:08:16;;;;;;;123.60;30.42;;;13.10;99.90;;;11.99;100.00;100759.00;5019935;28;20509;-78
2022/10/16 05:10:43;;;;;;;15.00;8.25;;;13.10;99.90;;;11.96;100.00;100764.41;5023492;28;20040;-78
2022/10/16 05:13:14;;;;;;;11.70;7.10;;;13.00;99.90;;;11.92;100.00;100756.75;5004850;28;20070;-78
2022/10/16 05:15:40;;;;;;;16.10;8.63;;;13.00;99.90;;;11.86;100.00;100765.81;5023733;28;20025;-78
2022/10/16 05:18:06;;;;;;;9.93;7.55;;;12.90;99.90;;;11.83;100.00;100766.81;5022176;28;20104;-78
2022/10/16 05:20:32;;;;;;;10.88;7.90;;;12.90;99.90;;;11.77;100.00;100763.63;5020769;28;20124;-79
2022/10/16 05:22:58;;;;;;;10.75;8.32;;;12.90;99.90;;;11.73;100.00;100759.44;5039567;28;20409;-78
2022/10/16 05:25:24;;;;;;;8.38;7.25;;;12.80;99.90;;;11.67;100.00;100765.88;5022108;28;20116;-78
2022/10/16 05:27:56;;;;;;;12.60;9.35;;;12.80;99.90;;;11.62;100.00;100759.97;5019458;28;20030;-78
2022/10/16 05:30:22;;;;;;;13.63;9.50;;;12.70;99.90;;;11.58;100.00;100756.66;5025163;28;20036;-78
2022/10/16 05:32:51;;;;;;;13.57;10.00;;;12.70;99.90;;;11.57;100.00;100777.81;5008102;28;20030;-79
2022/10/16 05:35:23;;;;;;;13.85;9.57;;;12.70;99.90;;;11.55;100.00;100777.91;5012371;28;20029;-78
2022/10/16 05:37:49;;;;;;;16.92;10.32;;;12.70;99.90;;;11.56;100.00;100778.78;5043268;28;20033;-78
2022/10/16 05:40:16;;;;;;;12.65;9.82;;;12.70;99.90;;;11.57;100.00;100778.66;5009128;28;20033;-78
2022/10/16 05:42:42;;;;;;;18.80;10.68;;;12.70;99.90;;;11.58;100.00;100782.19;5025069;28;20559;-78
2022/10/16 05:45:11;;;;;;;19.05;10.55;;;12.70;99.90;;;11.57;100.00;100773.41;5026085;28;20033;-78
2022/10/16 05:47:40;;;;;;;13.05;9.75;;;12.70;99.90;;;11.58;100.00;100777.75;5007824;28;20025;-78
2022/10/16 05:50:07;;;;;;;13.35;9.90;;;12.70;99.90;;;11.59;100.00;100789.16;5007048;28;20034;-78
2022/10/16 05:52:33;;;;;;;15.18;9.40;;;12.70;99.90;;;11.58;100.00;100793.59;5042828;28;20047;-78
2022/10/16 05:54:58;;;;;;;14.77;9.45;;;12.70;99.90;;;11.59;100.00;100791.78;5010844;28;20025;-78
2022/10/16 05:57:32;;;;;;;11.60;9.88;;;12.70;99.90;;;11.59;100.00;100799.69;5027615;28;20557;-78
2022/10/16 05:59:57;;;;;;;19.23;9.75;;;12.70;99.90;;;11.60;100.00;100798.78;5025906;28;20025;-78
2022/10/16 06:02:23;;;;;;;14.77;9.40;;;12.70;99.90;;;11.60;100.00;100801.44;5027279;28;20032;-78
2022/10/16 06:04:51;;;;;;;18.48;9.23;;;12.70;99.90;;;11.60;100.00;100806.69;5024080;28;20178;-78
2022/10/16 06:07:22;;;;;;;20.10;11.73;;;12.70;99.90;;;11.59;100.00;100803.19;5026195;28;20033;-78
2022/10/16 06:09:52;;;;;;;25.48;12.13;;;12.70;99.90;;;11.60;100.00;100804.91;5025426;28;20528;-78
2022/10/16 06:12:19;;;;;;;13.27;8.63;;;12.70;99.90;;;11.64;100.00;100814.38;5023533;28;20069;-78
2022/10/16 06:14:46;;;;;;;34.25;9.32;;;12.70;99.90;;;11.75;100.00;100821.75;5007334;28;20061;-79
2022/10/16 06:17:15;;;;;;;18.08;9.80;;;12.80;99.90;;;11.84;100.00;100828.34;5025229;28;20079;-78
2022/10/16 06:19:41;;;;;;;13.35;8.23;;;12.80;99.90;;;11.92;100.00;100838.53;5024021;28;20495;-78
2022/10/16 06:22:07;;;;;;;14.43;9.15;;;12.90;99.90;;;11.97;100.00;100833.91;5022464;28;20025;-78
2022/10/16 06:24:33;;;;;;;13.05;7.72;;;12.90;99.90;;;12.02;100.00;100838.00;5008965;28;20040;-78
2022/10/16 06:26:59;;;;;;;11.00;7.47;;;13.00;99.90;;;12.06;100.00;100839.56;5005683;28;20425;-79
2022/10/16 06:29:24;;;;;;;12.68;7.65;;;13.10;99.90;;;12.09;100.00;100847.34;5024222;28;20159;-78
2022/10/16 06:31:53;;;;;;;13.27;7.05;;;13.10;99.90;;;12.10;100.00;100843.75;5022991;28;20033;-78
2022/10/16 06:34:19;;;;;;;11.18;6.40;;;13.10;99.90;;;12.11;100.00;100842.81;5026104;28;20135;-79
2022/10/16 06:36:45;;;;;;;11.73;6.55;;;13.10;99.90;;;12.20;100.00;100844.16;5005517;28;20117;-79
2022/10/16 06:39:11;;;;;;;8.15;5.95;;;13.20;99.90;;;12.24;100.00;100844.81;5022591;28;20405;-78
2022/10/16 06:41:38;;;;;;;10.40;5.80;;;13.20;99.90;;;12.29;100.00;100850.75;5023034;28;20033;-78
2022/10/16 06:44:07;;;;;;;9.52;5.20;;;13.30;99.90;;;12.37;100.00;100843.25;5007847;28;20114;-77
2022/10/16 06:46:33;;;;;;;10.60;5.03;;;13.40;99.90;;;12.50;100.00;100848.75;5000893;28;20120;-78
2022/10/16 06:48:59;;;;;;;8.80;4.90;;;13.50;99.90;;;12.62;100.00;100860.47;5006782;28;20052;-78
2022/10/16 06:51:25;;;;;;;8.98;4.57;;;13.50;99.90;;;12.71;100.00;100866.09;5005101;28;20653;-78
2022/10/16 06:53:56;;;;;;;10.68;4.57;;;13.70;99.90;;;12.83;100.00;100877.81;5021013;28;20041;-78
2022/10/16 06:56:29;;;;;;;7.85;3.92;;;13.70;99.90;;;12.91;100.00;100870.34;5008131;28;20021;-78
2022/10/16 06:58:55;;;;;;;12.70;3.88;;;13.80;99.90;;;12.98;100.00;100883.19;5023023;28;20021;-78
2022/10/16 07:01:23;;;;;;;7.07;3.80;;;13.90;99.90;;;13.04;100.00;100890.78;5024045;28;20052;-78
2022/10/16 07:03:58;;;;;;;10.90;3.80;;;13.90;99.90;;;13.11;100.00;100900.97;5003949;28;20687;-78
2022/10/16 07:06:26;;;;;;;12.25;3.67;;;14.00;99.90;;;13.23;100.00;100899.44;5025493;28;20107;-78
2022/10/16 07:08:54;;;;;;;6.85;3.83;;;14.10;99.90;;;13.27;100.00;100898.31;5025222;28;20033;-78
2022/10/16 07:11:23;;;;;;;7.10;3.30;;;14.10;99.90;;;13.33;100.00;100905.09;5006777;28;20025;-78
2022/10/16 07:13:51;;;;;;;12.70;3.80;;;14.20;99.90;;;13.42;100.00;100909.88;5021520;28;20053;-78
2022/10/16 07:16:20;;;;;;;4.70;2.83;;;14.30;99.90;;;13.47;100.00;100909.63;5046638;23;20520;-83
2022/10/16 07:18:58;;;;;;;8.15;2.80;;;14.30;99.90;;;13.53;100.00;100918.06;5038914;28;20025;-83
2022/10/16 07:21:27;;;;;;;6.65;3.00;;;14.40;99.90;;;13.61;100.00;100924.75;5033177;28;20433;-84
2022/10/16 07:23:59;;;;;;;2.95;2.30;;;14.50;99.90;;;13.68;100.00;100928.75;5027158;28;20036;-85
2022/10/16 07:26:26;;;;;;;5.45;2.50;;;14.50;99.90;;;13.77;100.00;100930.00;5029466;28;20025;-85
2022/10/16 07:28:59;;;;;;;5.95;2.13;;;14.60;99.90;;;13.83;100.00;100930.50;5012309;28;20029;-84
2022/10/16 07:31:26;;;;;;;7.63;2.22;;;14.70;99.90;;;13.87;100.00;100931.19;5010095;28;20048;-84
2022/10/16 07:33:53;;;;;;;9.35;2.28;;;14.70;99.90;;;13.99;100.00;100938.41;5031361;28;20056;-84
2022/10/16 07:36:26;;;;;;;4.05;1.90;;;14.80;99.90;;;14.06;100.00;100933.63;5026706;28;20033;-85
2022/10/16 07:38:52;;;;;;;6.32;2.38;;;14.90;99.90;;;14.29;100.00;100942.88;5013996;28;20553;-83
2022/10/16 07:41:19;;;;;;;4.82;2.10;;;15.10;99.90;;;14.56;100.00;100940.44;5025998;28;20040;-83
2022/10/16 07:43:52;;;;;;;3.75;1.98;;;15.30;99.90;;;14.86;100.00;100940.38;5027973;28;20112;-84
2022/10/16 07:46:22;;;;;;;4.03;1.88;;;15.50;99.90;;;15.39;98.97;100946.78;5025824;28;20033;-84
2022/10/16 07:48:48;;;;;;;5.88;1.80;;;15.80;99.90;;;15.73;96.05;100965.91;5027600;28;20018;-83
2022/10/16 07:51:23;;;;;;;8.32;1.77;;;16.20;99.90;;;16.25;93.14;100960.78;5026419;28;20026;-83
2022/10/16 07:53:50;;;;;;;10.18;1.95;;;16.70;99.90;;;16.91;89.64;100966.94;5008617;28;20030;-83
2022/10/16 07:56:18;;;;;;;3.85;1.55;;;17.20;99.90;;;17.35;86.56;100982.47;5027440;28;20021;-83
2022/10/16 07:58:44;;;;;;;4.65;1.67;;;17.60;99.90;;;17.29;85.31;100985.56;5026340;28;20037;-85
2022/10/16 08:01:15;;;;;;;6.22;1.70;;;17.80;99.90;;;17.27;84.54;100983.97;5029376;28;20040;-85
2022/10/16 08:03:47;;;;;;;4.75;1.65;;;17.80;99.90;;;17.20;83.60;100980.88;5029053;28;20644;-85
2022/10/16 08:06:15;;;;;;;4.50;2.03;;;17.90;99.90;;;17.41;83.66;100979.38;5027847;28;20041;-85
2022/10/16 08:08:43;;;;;;;4.53;1.70;;;18.20;99.90;;;18.08;80.99;100983.44;5025131;28;20047;-84
2022/10/16 08:11:09;;;;;;;5.35;1.70;;;18.50;99.90;;;18.06;80.44;100980.06;5010779;28;20048;-85
2022/10/16 08:13:36;;;;;;;3.30;1.50;;;18.70;99.90;;;18.00;79.76;100972.50;5025843;28;20057;-85
2022/10/16 08:16:07;;;;;;;5.78;1.67;;;18.80;99.90;;;18.05;79.79;100973.00;5026614;28;20457;-85
2022/10/16 08:18:35;;;;;;;5.53;1.70;;;18.80;99.90;;;17.94;80.04;100975.63;5025986;28;20037;-86
2022/10/16 08:21:02;;;;;;;5.15;1.70;;;18.60;99.90;;;17.72;80.16;100973.66;5027751;28;20028;-85
2022/10/16 08:23:28;;;;;;;51.92;4.03;;;18.50;99.90;;;17.43;80.94;100971.28;5027138;28;20037;-84
2022/10/16 08:25:56;;;;;;;3.25;1.52;;;18.30;99.90;;;17.25;81.95;100988.53;5028676;28;20025;-85
2022/10/16 08:28:27;;;;;;;6.60;1.52;;;18.10;99.90;;;16.94;82.70;100986.22;5021846;28;20056;-83
2022/10/16 08:30:53;;;;;;;4.25;1.20;;;17.90;99.90;;;16.85;83.41;100989.53;5028484;28;20036;-85
2022/10/16 08:33:20;;;;;;;3.35;1.35;;;17.80;99.90;;;17.02;83.38;100991.88;5029299;28;20025;-85
2022/10/16 08:35:55;;;;;;;5.15;1.80;;;17.90;99.90;;;17.12;82.66;101000.03;5026648;28;20025;-83
2022/10/16 08:38:21;;;;;;;4.38;1.40;;;18.10;99.90;;;17.40;81.83;101009.59;5025018;28;20674;-85
2022/10/16 08:40:47;;;;;;;5.32;1.35;;;18.30;99.90;;;17.74;80.79;101012.50;5027158;28;20055;-83
2022/10/16 08:43:54;;;;;;;5.63;1.65;;;18.70;99.90;;;18.70;77.40;101013.47;5025853;28;20036;-85
2022/10/16 08:46:34;;;;;;;8.43;1.30;;;19.60;99.90;;;19.69;74.16;101010.19;5024447;28;20112;-86
2022/10/16 08:49:02;;;;;;;3.35;1.27;;;20.50;99.90;;;20.58;71.25;101018.13;5028623;28;20048;-85
2022/10/16 08:51:38;;;;;;;5.15;1.35;;;21.20;99.90;;;21.01;68.88;101006.44;5026433;28;20112;-84
2022/10/16 08:54:41;;;;;;;5.13;1.38;;;21.50;99.90;;;21.04;67.16;101012.38;5026906;28;20103;-84
2022/10/16 08:57:20;;;;;;;5.45;1.23;;;21.60;99.90;;;20.88;67.57;101012.84;5006578;28;20124;-84
2022/10/16 08:59:46;;;;;;;2.60;1.08;;;21.50;99.90;;;20.85;67.44;101009.59;5025168;28;20054;-84
2022/10/16 09:02:35;;;;;;;5.78;1.40;;;21.50;99.90;;;21.02;66.62;101008.13;5022661;28;20044;-85
2022/10/16 09:05:18;;;;;;;4.75;1.48;;;21.40;99.90;;;20.97;66.36;101008.53;5029905;28;20022;-86
2022/10/16 09:07:54;;;;;;;3.05;1.13;;;21.30;99.90;;;20.99;66.67;101022.63;5032472;28;20539;-84
2022/10/16 09:10:42;;;;;;;5.57;1.20;;;21.20;99.90;;;20.96;66.78;101017.53;5043935;28;20041;-85
2022/10/16 09:13:54;;;;;;;5.30;1.10;;;21.00;99.90;;;20.58;66.53;101018.97;5028919;28;20334;-85
2022/10/16 09:16:35;;;;;;;2.58;0.95;;;20.70;99.90;;;20.23;68.34;101024.56;5031548;28;20044;-86
2022/10/16 09:19:24;;;;;;;3.70;1.30;;;20.40;99.90;;;19.61;70.67;101028.66;5029444;28;20067;-85
2022/10/16 09:21:59;;;;;;;25.10;11.65;;;20.10;99.90;;;19.19;72.10;101023.91;5029884;28;20073;-86
2022/10/16 09:24:29;;;;;;;3.38;1.10;;;19.80;99.90;;;18.78;72.91;101016.44;5030585;28;20037;-84
2022/10/16 09:26:55;;;;;;;4.00;1.10;;;19.60;99.90;;;18.55;73.35;101018.16;5011627;28;20091;-84
2022/10/16 09:29:33;;;;;;;5.55;1.05;;;19.50;99.90;;;18.39;74.33;101023.81;5030036;28;20028;-84
2022/10/16 09:32:24;;;;;;;4.05;1.60;;;19.30;99.90;;;18.27;74.02;101014.03;5027209;28;20042;-85
2022/10/16 09:34:58;;;;;;;6.30;1.13;;;19.30;99.90;;;18.12;74.15;101014.25;5031681;28;20498;-84
2022/10/16 09:37:30;;;;;;;4.55;0.80;;;19.20;99.90;;;18.09;74.07;101018.94;5013516;28;20025;-84
2022/10/16 09:39:59;;;;;;;2.40;1.08;;;19.10;99.90;;;18.13;74.01;101023.91;5029016;28;20495;-84
2022/10/16 09:42:39;;;;;;;5.45;0.80;;;19.10;99.90;;;18.14;73.89;101017.66;5006216;28;20099;-82
2022/10/16 09:45:34;;;;;;;4.35;0.88;;;19.10;99.90;;;18.18;72.79;101023.56;5012236;28;20040;-83
2022/10/16 09:48:14;;;;;;;5.90;0.90;;;19.10;99.90;;;18.16;72.43;101026.38;5026286;28;20040;-84
2022/10/16 09:50:49;;;;;;;3.95;1.40;;;19.10;99.90;;;18.36;73.14;101034.72;5030161;28;20033;-84
2022/10/16 09:53:22;;;;;;;2.25;0.80;;;19.20;99.90;;;18.28;72.46;101023.75;5030475;28;20066;-85
2022/10/16 09:56:00;;;;;;;5.22;0.90;;;19.10;99.90;;;18.16;72.20;101031.72;5033238;28;20063;-84
2022/10/16 09:58:37;;;;;;;4.63;1.15;;;19.10;99.90;;;18.15;70.99;101035.31;5031824;28;20029;-84
2022/10/16 10:01:02;;;;;;;;;;;19.10;99.90;;;18.14;70.63;101038.09;5016037;28;20444;-84
2022/10/16 10:03:39;;;;;;;7.40;1.40;;;19.10;99.90;;;18.21;70.82;101037.53;5024432;28;19917;-85
2022/10/16 10:06:32;;;;;;;4.60;0.65;;;19.10;99.90;;;18.33;69.45;101032.25;5029902;28;20194;-84
2022/10/16 10:09:30;;;;;;;4.00;0.90;;;19.30;99.90;;;18.58;69.23;101034.78;5030727;28;20032;-85
2022/10/16 10:11:57;;;;;;;4.25;0.70;;;19.40;99.90;;;18.70;69.73;101042.81;5042390;28;20037;-83
2022/10/16 10:14:52;;;;;;;4.78;0.77;;;19.50;99.90;;;18.74;68.97;101045.13;5047036;28;20032;-84
2022/10/16 10:17:29;;;;;;;6.00;0.93;;;19.50;99.90;;;18.77;68.90;101049.41;5014417;28;20033;-83
2022/10/16 10:20:34;;;;;;;7.10;0.93;;;19.60;99.90;;;18.71;68.73;101041.88;5027977;28;20113;-83
2022/10/16 10:23:26;;;;;;;6.32;0.90;;;19.50;99.90;;;18.56;68.81;101042.06;5012081;28;20037;-83
2022/10/16 10:26:18;;;;;;;18.58;13.43;;;19.50;99.90;;;18.51;68.49;101044.22;5025238;28;20733;-84